createdAt,value
2018-07-14T04:40:10.947Z,10.00
2018-07-14T04:42:54.476Z,10.67
2018-07-14T04:45:31.326Z,11.07
2018-07-14T04:48:15.041Z,10.47
2018-07-14T04:50:50.738Z,10.73
2018-07-14T04:53:23.462Z,10.47
2018-07-14T04:55:53.769Z,10.80
2018-07-14T04:58:24.040Z,10.40
2018-07-14T05:00:54.309Z,11.07
2018-07-14T05:03:25.244Z,10.03
2018-07-14T05:05:56.237Z,11.37
2018-07-14T05:08:26.521Z,11.70
2018-07-14T05:10:56.828Z,12.97
2018-07-14T05:13:27.139Z,10.87
2018-07-14T05:15:57.418Z,10.27
2018-07-14T05:18:27.729Z,11.17
2018-07-14T05:20:58.054Z,10.47
2018-07-14T05:23:28.402Z,11.50
2018-07-14T05:25:58.700Z,11.00
2018-07-14T05:28:29.084Z,10.20
2018-07-14T05:30:59.314Z,10.93
2018-07-14T05:33:29.619Z,10.50
2018-07-14T05:35:59.978Z,10.43
2018-07-14T05:38:30.273Z,10.53
2018-07-14T05:41:00.502Z,9.37
2018-07-14T05:43:31.213Z,10.30
2018-07-14T05:46:01.640Z,10.13
2018-07-14T05:48:32.055Z,9.70
2018-07-14T05:51:02.400Z,9.73
2018-07-14T05:53:32.723Z,10.17
2018-07-14T05:56:02.977Z,9.67
2018-07-14T05:58:33.309Z,9.80
2018-07-14T06:01:03.581Z,9.67
2018-07-14T06:03:33.823Z,9.07
2018-07-14T06:06:04.147Z,9.93
2018-07-14T06:08:36.062Z,9.40
2018-07-14T06:11:06.378Z,9.03
2018-07-14T06:13:36.778Z,9.07
2018-07-14T06:16:07.248Z,9.43
2018-07-14T06:18:37.545Z,8.60
2018-07-14T06:21:07.363Z,10.70
2018-07-14T06:23:42.636Z,9.13
2018-07-14T06:26:12.901Z,8.63
2018-07-14T06:28:43.231Z,9.70
2018-07-14T06:31:13.560Z,8.53
2018-07-14T06:33:43.806Z,9.27
2018-07-14T06:36:14.204Z,8.93
2018-07-14T06:38:44.565Z,10.10
2018-07-14T06:41:14.803Z,9.43
2018-07-14T06:43:45.124Z,9.10
2018-07-14T06:46:15.323Z,8.53
2018-07-14T06:48:45.138Z,8.33
2018-07-14T06:51:15.399Z,8.57
2018-07-14T06:53:45.689Z,7.83
2018-07-14T06:56:16.023Z,9.57
2018-07-14T06:58:46.437Z,8.93
2018-07-14T07:01:16.764Z,8.57
2018-07-14T07:03:46.998Z,8.30
2018-07-14T07:06:17.616Z,8.43
2018-07-14T07:08:47.940Z,8.33
2018-07-14T07:11:17.819Z,8.73
2018-07-14T07:13:48.198Z,7.50
2018-07-14T07:16:18.450Z,9.10
2018-07-14T07:18:48.725Z,8.10
2018-07-14T07:21:19.115Z,7.63
2018-07-14T07:23:49.449Z,7.70
2018-07-14T07:26:19.717Z,7.90
2018-07-14T07:28:50.118Z,8.80
2018-07-14T07:31:20.349Z,8.97
2018-07-14T07:33:50.564Z,8.20
2018-07-14T07:36:20.971Z,8.63
2018-07-14T07:38:51.305Z,8.17
2018-07-14T07:41:21.594Z,8.10
2018-07-14T07:43:52.154Z,6.77
2018-07-14T07:46:22.435Z,7.63
2018-07-14T07:48:52.724Z,7.30
2018-07-14T07:51:23.023Z,7.37
2018-07-14T07:53:53.344Z,7.67
2018-07-14T07:56:23.618Z,7.20
2018-07-14T07:58:54.043Z,7.23
2018-07-14T08:01:24.401Z,6.87
2018-07-14T08:03:54.645Z,6.70
2018-07-14T08:06:24.907Z,6.40
2018-07-14T08:08:55.131Z,7.00
2018-07-14T08:11:25.440Z,7.63
2018-07-14T08:13:55.760Z,12.20
2018-07-14T08:16:26.262Z,8.40
2018-07-14T08:18:56.487Z,7.20
2018-07-14T08:21:26.797Z,7.97
2018-07-14T08:23:57.173Z,6.63
2018-07-14T08:26:27.471Z,7.40
2018-07-14T08:28:57.788Z,6.53
2018-07-14T08:31:28.077Z,6.60
2018-07-14T08:33:58.327Z,6.55
2018-07-14T08:36:28.638Z,7.25
2018-07-14T08:38:58.957Z,6.10
2018-07-14T08:41:29.182Z,6.17
2018-07-14T08:43:59.598Z,6.95
2018-07-14T08:46:29.863Z,6.33
2018-07-14T08:49:00.377Z,5.97
2018-07-14T08:51:30.751Z,5.95
2018-07-14T08:54:01.062Z,6.83
2018-07-14T08:56:31.352Z,6.65
2018-07-14T08:59:01.645Z,5.72
2018-07-14T09:01:31.979Z,6.40
2018-07-14T09:04:02.308Z,6.08
2018-07-14T09:06:32.613Z,6.47
2018-07-14T09:09:03.021Z,7.08
2018-07-14T09:11:33.402Z,6.15
2018-07-14T09:14:03.760Z,6.58
2018-07-14T09:16:34.072Z,6.40
2018-07-14T09:19:04.369Z,7.30
2018-07-14T09:21:34.733Z,7.42
2018-07-14T09:24:05.158Z,7.72
2018-07-14T09:26:35.460Z,6.55
2018-07-14T09:29:05.848Z,7.33
2018-07-14T09:31:36.318Z,7.33
2018-07-14T09:34:06.667Z,6.95
2018-07-14T09:36:36.640Z,7.80
2018-07-14T09:39:08.266Z,6.85
2018-07-14T09:41:38.620Z,6.67
2018-07-14T09:44:09.066Z,6.87
2018-07-14T09:46:39.477Z,6.30
2018-07-14T09:49:09.860Z,5.75
2018-07-14T09:51:40.165Z,7.10
2018-07-14T09:54:10.479Z,7.15
2018-07-14T09:56:40.871Z,7.72
2018-07-14T09:59:11.190Z,7.60
2018-07-14T10:01:41.519Z,6.62
2018-07-14T10:04:11.888Z,7.67
2018-07-14T10:06:42.177Z,7.15
2018-07-14T10:09:12.549Z,8.63
2018-07-14T10:11:42.863Z,7.78
2018-07-14T10:14:13.161Z,7.15
2018-07-14T10:16:43.468Z,7.58
2018-07-14T10:19:13.838Z,7.62
2018-07-14T10:21:44.139Z,7.30
2018-07-14T10:24:14.468Z,8.78
2018-07-14T10:26:44.671Z,6.92
2018-07-14T10:29:15.025Z,7.85
2018-07-14T10:31:44.908Z,6.90
2018-07-14T10:34:15.280Z,8.50
2018-07-14T10:36:45.596Z,8.08
2018-07-14T10:39:15.979Z,7.83
2018-07-14T10:41:46.317Z,7.70
2018-07-14T10:44:16.595Z,8.38
2018-07-14T10:46:46.975Z,8.83
2018-07-14T10:49:17.366Z,8.35
2018-07-14T10:51:47.632Z,7.28
2018-07-14T10:54:18.024Z,8.28
2018-07-14T10:56:48.290Z,8.03
2018-07-14T10:59:18.554Z,7.60
2018-07-14T11:01:48.910Z,7.55
2018-07-14T11:04:19.278Z,7.40
2018-07-14T11:06:49.620Z,7.03
2018-07-14T11:09:19.877Z,7.83
2018-07-14T11:11:50.141Z,7.72
2018-07-14T11:14:20.440Z,7.20
2018-07-14T11:16:50.879Z,7.12
2018-07-14T11:19:21.141Z,7.30
2018-07-14T11:21:51.439Z,7.17
2018-07-14T11:24:21.721Z,7.75
2018-07-14T11:26:52.058Z,7.95
2018-07-14T11:29:22.335Z,8.13
2018-07-14T11:31:52.664Z,7.05
2018-07-14T11:34:23.038Z,7.00
2018-07-14T11:36:53.299Z,7.05
2018-07-14T11:39:23.735Z,8.20
2018-07-14T11:41:54.139Z,8.23
2018-07-14T11:44:24.566Z,7.37
2018-07-14T11:46:54.846Z,6.80
2018-07-14T11:49:25.149Z,6.83
2018-07-14T11:51:55.525Z,7.50
2018-07-14T11:54:25.769Z,7.17
2018-07-14T11:56:56.137Z,6.35
2018-07-14T11:59:26.772Z,5.83
2018-07-14T12:01:57.116Z,6.47
2018-07-14T12:04:27.486Z,7.47
2018-07-14T12:06:57.865Z,8.45
2018-07-14T12:09:28.133Z,7.25
2018-07-14T12:11:58.501Z,6.58
2018-07-14T12:14:28.797Z,7.78
2018-07-14T12:16:59.168Z,7.85
2018-07-14T12:19:29.500Z,7.53
2018-07-14T12:21:59.815Z,6.70
2018-07-14T12:24:30.112Z,6.58
2018-07-14T12:27:00.547Z,7.70
2018-07-14T12:29:30.795Z,6.15
2018-07-14T12:32:01.111Z,6.25
2018-07-14T12:34:31.602Z,5.00
2018-07-14T12:37:21.396Z,6.12
2018-07-14T12:39:51.700Z,6.08
2018-07-14T12:42:21.989Z,5.53
2018-07-14T12:44:52.258Z,5.97
2018-07-14T12:47:22.669Z,5.12
2018-07-14T12:49:53.004Z,5.87
2018-07-14T12:52:23.369Z,4.58
2018-07-14T12:54:53.725Z,5.17
2018-07-14T12:57:24.032Z,5.15
2018-07-14T12:59:54.439Z,6.25
2018-07-14T13:02:24.820Z,5.15
2018-07-14T13:04:55.235Z,4.42
2018-07-14T13:07:25.649Z,4.60
2018-07-14T13:09:55.949Z,4.53
2018-07-14T13:12:26.415Z,8.25
2018-07-14T13:14:56.690Z,5.17
2018-07-14T13:17:27.002Z,4.62
2018-07-14T13:19:57.353Z,4.42
2018-07-14T13:22:27.684Z,4.92
2018-07-14T13:24:58.055Z,4.55
2018-07-14T13:27:28.377Z,4.50
2018-07-14T13:29:58.803Z,4.75
2018-07-14T13:32:29.170Z,3.85
2018-07-14T13:34:59.522Z,4.35
2018-07-14T13:37:29.843Z,4.70
2018-07-14T13:40:00.165Z,5.78
2018-07-14T13:42:30.535Z,4.67
2018-07-14T13:45:00.829Z,4.28
2018-07-14T13:47:31.230Z,4.10
2018-07-14T13:50:01.629Z,5.05
2018-07-14T13:52:32.079Z,3.98
2018-07-14T13:55:02.550Z,3.42
2018-07-14T13:57:33.162Z,3.83
2018-07-14T14:00:03.643Z,3.95
2018-07-14T14:02:33.982Z,3.37
2018-07-14T14:05:04.645Z,4.00
2018-07-14T14:07:35.418Z,3.35
2018-07-14T14:10:05.920Z,3.90
2018-07-14T14:12:36.263Z,3.37
2018-07-14T14:15:06.908Z,3.20
2018-07-14T14:17:37.310Z,3.60
2018-07-14T14:20:07.829Z,3.30
2018-07-14T14:22:38.244Z,3.60
2018-07-14T14:25:08.859Z,3.42
2018-07-14T14:27:39.179Z,3.55
2018-07-14T14:30:09.591Z,3.60
2018-07-14T14:32:39.991Z,3.87
2018-07-14T14:35:10.426Z,3.33
2018-07-14T14:37:40.709Z,3.60
2018-07-14T14:40:11.001Z,3.42
2018-07-14T14:42:41.270Z,3.72
2018-07-14T14:45:11.619Z,2.98
2018-07-14T14:47:41.983Z,2.83
2018-07-14T14:50:12.488Z,3.60
2018-07-14T14:52:42.848Z,2.95
2018-07-14T14:55:13.219Z,3.08
2018-07-14T14:57:43.562Z,3.10
2018-07-14T15:00:13.902Z,3.25
2018-07-14T15:02:44.538Z,3.02
2018-07-14T15:05:14.899Z,3.77
2018-07-14T15:07:45.220Z,3.10
2018-07-14T15:10:15.518Z,3.17
2018-07-14T15:12:45.958Z,3.10
2018-07-14T15:15:16.298Z,3.60
2018-07-14T15:17:46.649Z,3.15
2018-07-14T15:20:17.106Z,3.58
2018-07-14T15:22:47.417Z,3.25
2018-07-14T15:25:17.718Z,2.87
2018-07-14T15:27:48.083Z,3.02
2018-07-14T15:30:18.455Z,2.60
2018-07-14T15:32:48.929Z,3.20
2018-07-14T15:35:19.218Z,3.12
2018-07-14T15:37:49.541Z,3.30
2018-07-14T15:40:19.861Z,3.33
2018-07-14T15:42:50.259Z,3.35
2018-07-14T15:45:20.574Z,2.90
2018-07-14T15:47:50.841Z,3.67
2018-07-14T15:50:21.169Z,3.50
2018-07-14T15:52:51.460Z,3.10
2018-07-14T15:55:21.901Z,3.80
2018-07-14T15:57:52.663Z,3.40
2018-07-14T16:00:23.078Z,3.65
2018-07-14T16:02:53.365Z,2.98
2018-07-14T16:05:23.619Z,3.80
2018-07-14T16:07:53.989Z,4.15
2018-07-14T16:10:24.241Z,3.25
2018-07-14T16:12:54.540Z,2.70
2018-07-14T16:15:24.956Z,3.00
2018-07-14T16:17:55.358Z,3.98
2018-07-14T16:20:25.638Z,3.33
2018-07-14T16:22:55.899Z,2.60
2018-07-14T16:25:26.059Z,3.00
2018-07-14T16:27:56.411Z,2.90
2018-07-14T16:30:26.694Z,3.00
2018-07-14T16:32:56.980Z,2.65
2018-07-14T16:35:27.307Z,2.90
2018-07-14T16:37:57.543Z,2.95
2018-07-14T16:40:27.919Z,2.77
2018-07-14T16:42:58.197Z,2.50
2018-07-14T16:45:28.542Z,2.92
2018-07-14T16:47:58.922Z,2.42
2018-07-14T16:50:29.270Z,2.50
2018-07-14T16:52:59.641Z,2.62
2018-07-14T16:55:30.033Z,2.20
2018-07-14T16:58:00.379Z,2.60
2018-07-14T17:00:30.723Z,2.50
2018-07-14T17:03:01.042Z,2.50
2018-07-14T17:05:31.315Z,3.08
2018-07-14T17:08:01.629Z,2.35
2018-07-14T17:10:31.880Z,2.40
2018-07-14T17:13:02.181Z,2.35
2018-07-14T17:15:32.510Z,2.40
2018-07-14T17:18:02.892Z,2.60
2018-07-14T17:20:33.149Z,2.50
2018-07-14T17:23:03.400Z,2.05
2018-07-14T17:25:33.689Z,2.50
2018-07-14T17:28:04.031Z,2.30
2018-07-14T17:30:34.352Z,2.10
2018-07-14T17:33:04.682Z,2.05
2018-07-14T17:35:35.015Z,2.15
2018-07-14T17:38:05.352Z,2.20
2018-07-14T17:40:35.772Z,1.80
2018-07-14T17:43:06.199Z,2.08
2018-07-14T17:45:36.635Z,1.82
2018-07-14T17:48:07.318Z,2.10
2018-07-14T17:50:37.612Z,1.80
2018-07-14T17:53:07.822Z,1.90
2018-07-14T17:55:38.138Z,2.00
2018-07-14T17:58:08.545Z,1.90
2018-07-14T18:00:38.873Z,2.00
2018-07-14T18:03:09.062Z,2.00
2018-07-14T18:05:39.386Z,2.35
2018-07-14T18:08:09.701Z,1.82
2018-07-14T18:10:40.019Z,1.95
2018-07-14T18:13:10.206Z,1.92
2018-07-14T18:15:40.518Z,2.02
2018-07-14T18:18:10.785Z,1.95
2018-07-14T18:20:41.006Z,2.10
2018-07-14T18:23:11.224Z,1.80
2018-07-14T18:25:41.435Z,1.95
2018-07-14T18:28:11.701Z,1.85
2018-07-14T18:30:42.278Z,1.72
2018-07-14T18:33:12.477Z,6.37
2018-07-14T18:35:42.660Z,1.70
2018-07-14T18:38:12.863Z,1.85
2018-07-14T18:40:43.105Z,1.92
2018-07-14T18:43:13.327Z,1.77
2018-07-14T18:45:43.590Z,1.82
2018-07-14T18:48:13.851Z,2.10
2018-07-14T18:50:45.057Z,1.95
2018-07-14T18:53:15.324Z,1.80
2018-07-14T18:55:45.571Z,1.77
2018-07-14T18:58:15.821Z,1.72
2018-07-14T19:00:46.176Z,1.60
2018-07-14T19:03:16.451Z,1.87
2018-07-14T19:05:46.709Z,2.02
2018-07-14T19:08:16.929Z,2.20
2018-07-14T19:10:47.168Z,2.02
2018-07-14T19:13:17.417Z,1.72
2018-07-14T19:15:47.620Z,1.65
2018-07-14T19:18:17.905Z,1.70
2018-07-14T19:20:48.148Z,1.98
2018-07-14T19:23:18.495Z,1.70
2018-07-14T19:25:48.698Z,1.92
2018-07-14T19:28:18.888Z,1.50
2018-07-14T19:30:49.140Z,2.00
2018-07-14T19:33:18.957Z,1.80
2018-07-14T19:35:49.156Z,1.90
2018-07-14T19:38:19.421Z,1.67
2018-07-14T19:40:49.646Z,1.60
2018-07-14T19:43:19.853Z,1.60
2018-07-14T19:45:50.169Z,1.70
2018-07-14T19:48:20.451Z,1.77
2018-07-14T19:50:50.827Z,1.67
2018-07-14T19:53:21.138Z,1.60
2018-07-14T19:55:51.475Z,1.62
2018-07-14T19:58:21.821Z,1.60
2018-07-14T20:00:52.111Z,1.65
2018-07-14T20:03:22.628Z,1.85
2018-07-14T20:05:53.045Z,1.72
2018-07-14T20:08:23.297Z,1.80
2018-07-14T20:10:53.616Z,1.52
2018-07-14T20:13:23.887Z,1.57
2018-07-14T20:15:54.240Z,1.67
2018-07-14T20:18:24.519Z,1.65
2018-07-14T20:20:54.862Z,1.80
2018-07-14T20:23:25.075Z,1.90
2018-07-14T20:25:55.394Z,1.75
2018-07-14T20:28:25.663Z,1.87
2018-07-14T20:30:55.918Z,1.77
2018-07-14T20:33:26.215Z,1.80
2018-07-14T20:35:56.454Z,1.90
2018-07-14T20:38:26.778Z,1.85
2018-07-14T20:40:57.065Z,2.00
2018-07-14T20:43:27.318Z,2.25
2018-07-14T20:45:57.591Z,2.37
2018-07-14T20:48:27.898Z,2.15
2018-07-14T20:50:58.164Z,1.95
2018-07-14T20:53:28.478Z,1.85
2018-07-14T20:55:58.796Z,1.92
2018-07-14T20:58:29.099Z,1.98
2018-07-14T21:00:59.459Z,1.90
2018-07-14T21:03:29.728Z,2.00
2018-07-14T21:06:00.000Z,2.00
2018-07-14T21:08:30.266Z,1.98
2018-07-14T21:11:00.589Z,1.60
2018-07-14T21:13:30.917Z,2.50
2018-07-14T21:16:01.417Z,2.55
2018-07-14T21:18:31.724Z,1.90
2018-07-14T21:21:02.069Z,1.90
2018-07-14T21:23:32.313Z,2.10
2018-07-14T21:26:02.616Z,1.80
2018-07-14T21:28:32.944Z,1.80
2018-07-14T21:31:03.329Z,1.92
2018-07-14T21:33:33.720Z,1.80
2018-07-14T21:36:04.056Z,1.72
2018-07-14T21:38:34.439Z,1.67
2018-07-14T21:41:04.807Z,2.10
2018-07-14T21:43:35.176Z,1.87
2018-07-14T21:46:05.706Z,1.75
2018-07-14T21:48:36.088Z,2.10
2018-07-14T21:51:06.685Z,2.20
2018-07-14T21:53:37.127Z,2.10
2018-07-14T21:56:07.518Z,2.10
2018-07-14T21:58:37.856Z,2.17
2018-07-14T22:01:13.397Z,2.30
2018-07-14T22:03:43.750Z,2.00
2018-07-14T22:06:14.020Z,2.27
2018-07-14T22:08:44.301Z,2.40
2018-07-14T22:11:14.597Z,2.10
2018-07-14T22:13:45.001Z,1.87
2018-07-14T22:16:15.346Z,1.98
2018-07-14T22:18:45.677Z,2.17
2018-07-14T22:21:16.000Z,2.30
2018-07-14T22:23:46.361Z,2.30
2018-07-14T22:26:16.635Z,2.10
2018-07-14T22:28:47.000Z,2.40
2018-07-14T22:31:17.269Z,2.43
2018-07-14T22:33:47.468Z,2.90
2018-07-14T22:36:17.768Z,2.50
2018-07-14T22:38:47.959Z,2.40
2018-07-14T22:41:18.238Z,2.30
2018-07-14T22:43:48.479Z,2.27
2018-07-14T22:46:18.744Z,2.70
2018-07-14T22:48:49.016Z,2.57
2018-07-14T22:51:19.312Z,3.40
2018-07-14T22:53:49.618Z,2.70
2018-07-14T22:56:19.890Z,2.55
2018-07-14T22:58:50.239Z,2.53
2018-07-14T23:01:20.505Z,2.80
2018-07-14T23:03:50.832Z,2.70
2018-07-14T23:06:21.123Z,2.67
2018-07-14T23:08:51.536Z,2.73
2018-07-14T23:11:21.880Z,2.90
2018-07-14T23:13:52.120Z,3.00
2018-07-14T23:16:22.469Z,2.87
2018-07-14T23:18:52.771Z,2.60
2018-07-14T23:21:23.088Z,2.80
2018-07-14T23:23:53.493Z,2.63
2018-07-14T23:26:23.821Z,2.90
2018-07-14T23:28:54.066Z,2.47
2018-07-14T23:31:24.388Z,3.20
2018-07-14T23:33:54.821Z,3.20
2018-07-14T23:36:25.130Z,2.90
2018-07-14T23:38:55.421Z,2.67
2018-07-14T23:41:25.720Z,2.60
2018-07-14T23:43:56.024Z,2.80
2018-07-14T23:46:26.378Z,2.73
2018-07-14T23:48:56.704Z,3.17
2018-07-14T23:51:26.916Z,3.10
2018-07-14T23:53:57.181Z,3.10
2018-07-14T23:56:27.437Z,2.90
2018-07-14T23:58:57.707Z,3.13
